^^
Meteo Knjazevac Station Historical Data
Daily Summary for March 4, 2021 Units:  English    Metric   Both
Daily Weekly Monthly Yearly Custom
  High: Low: Average:
Temperature: 45.9 °F 35.4 °F 40.2 °F
Dew Point: 41.6 °F 32.8 °F 36.8 °F
Humidity: 90% 84% 87%
Wind Speed: 3mph 0mph 0.3mph
Wind Gust: 5mph - -
Wind- - SW
Pressure: 30.30 in 30.28 in -
Precipitation: 0.00 in    
Historical Graphs
 
 
Tabular Data for March 4, 2021
Time Temperature Dew Point Pressure Wind Wind Speed Wind Gust Humidity Rainfall Rate (Hourly) solar Conditions
00:00 45.9 °F 41.6 °F 30.28 in ENE 1 mph 3 mph 85% 0.00 in 0 W/m2
00:10 45.7 °F 41.4 °F 30.28 in ESE 1 mph 3 mph 85% 0.00 in 0 W/m2
00:20 45.5 °F 41.3 °F 30.28 in SSE 1 mph 3 mph 85% 0.00 in 0 W/m2
00:30 45.3 °F 41.1 °F 30.28 in Calm   3 mph 85% 0.00 in 0 W/m2
00:40 45.1 °F 40.9 °F 30.28 in Calm   2 mph 85% 0.00 in 0 W/m2
00:50 45 °F 41 °F 30.28 in North 1 mph 2 mph 86% 0.00 in 0 W/m2
01:00 44.6 °F 40.1 °F 30.29 in Calm   2 mph 84% 0.00 in 0 W/m2
01:10 44.1 °F 39.5 °F 30.28 in Calm   2 mph 84% 0.00 in 0 W/m2
01:20 43.8 °F 39.6 °F 30.28 in Calm   2 mph 85% 0.00 in 0 W/m2
01:30 43.3 °F 38.8 °F 30.28 in Calm     84% 0.00 in 0 W/m2
01:40 42.8 °F 38.3 °F 30.29 in Calm     84% 0.00 in 0 W/m2
01:50 42.3 °F 38.1 °F 30.29 in Calm   1 mph 85% 0.00 in 0 W/m2
02:00 41.9 °F 37.7 °F 30.28 in Calm   2 mph 85% 0.00 in 0 W/m2
02:10 41.5 °F 37.4 °F 30.28 in Calm   1 mph 85% 0.00 in 0 W/m2
02:20 41.2 °F 37.3 °F 30.29 in NW 1 mph 2 mph 86% 0.00 in 0 W/m2
02:30 41 °F 37.4 °F 30.29 in NW 1 mph 3 mph 87% 0.00 in 0 W/m2
02:40 41.2 °F 38.2 °F 30.29 in Calm   2 mph 89% 0.00 in 0 W/m2
02:50 40.8 °F 37 °F 30.29 in Calm   1 mph 86% 0.00 in 0 W/m2
03:00 40.3 °F 36.4 °F 30.28 in West 1 mph 2 mph 86% 0.00 in 0 W/m2
03:10 39.7 °F 36.5 °F 30.28 in WNW 3 mph 5 mph 88% 0.00 in 0 W/m2
03:20 39.7 °F 36.8 °F 30.28 in Calm   5 mph 89% 0.00 in 0 W/m2
03:30 39.7 °F 36.8 °F 30.28 in Calm   1 mph 89% 0.00 in 0 W/m2
03:40 39.2 °F 35.9 °F 30.28 in Calm   2 mph 88% 0.00 in 0 W/m2
03:50 39 °F 35.8 °F 30.28 in Calm   2 mph 88% 0.00 in 0 W/m2
04:00 38.8 °F 35.5 °F 30.28 in Calm   1 mph 88% 0.00 in 0 W/m2
04:10 38.5 °F 35.2 °F 30.28 in NW 1 mph 2 mph 88% 0.00 in 0 W/m2
04:20 38.3 °F 35.3 °F 30.28 in NW 1 mph 2 mph 89% 0.00 in 0 W/m2
04:30 38.3 °F 35.6 °F 30.28 in Calm   3 mph 90% 0.00 in 0 W/m2
04:40 38.1 °F 35.2 °F 30.28 in Calm   1 mph 89% 0.00 in 0 W/m2
04:50 37.9 °F 34.9 °F 30.28 in Calm   2 mph 89% 0.00 in 0 W/m2
05:00 37.4 °F 34.5 °F 30.29 in Calm   2 mph 89% 0.00 in 0 W/m2
05:10 37.4 °F 34.7 °F 30.29 in Calm   2 mph 90% 0.00 in 0 W/m2
05:20 37 °F 34.1 °F 30.29 in NW 1 mph 2 mph 89% 0.00 in 0 W/m2
05:30 36.7 °F 33.7 °F 30.29 in Calm   2 mph 89% 0.00 in 0 W/m2
05:40 36.5 °F 33.6 °F 30.29 in Calm     89% 0.00 in 0 W/m2
05:50 36.3 °F 33.7 °F 30.30 in Calm     90% 0.00 in 0 W/m2
06:00 36.1 °F 33.5 °F 30.30 in Calm   1 mph 90% 0.00 in 0 W/m2
06:10 36 °F 33.3 °F 30.30 in Calm     90% 0.00 in 0 W/m2
06:20 36 °F 33.3 °F 30.30 in Calm   1 mph 90% 0.00 in 0 W/m2
06:30 35.6 °F 33 °F 30.30 in Calm   2 mph 90% 0.00 in 0 W/m2
06:40 35.4 °F 32.8 °F 30.30 in WNW 1 mph 2 mph 90% 0.00 in 8 W/m2
Knjazevac, Serbia
Compliments of Weather Underground - 2 mb